sensor_id;sensor_type;location;lat;lon;timestamp;pressure;altitude;pressure_sealevel;temperature;humidity
72061;BME280;59925;52.136;5.420;2023-01-29T00:01:46;103220.22;;;2.60;82.47
72061;BME280;59925;52.136;5.420;2023-01-29T00:04:13;103221.22;;;2.59;82.50
72061;BME280;59925;52.136;5.420;2023-01-29T00:06:39;103219.53;;;2.58;83.23
72061;BME280;59925;52.136;5.420;2023-01-29T00:09:06;103209.25;;;2.55;82.85
72061;BME280;59925;52.136;5.420;2023-01-29T00:11:32;103202.28;;;2.54;82.81
72061;BME280;59925;52.136;5.420;2023-01-29T00:13:58;103198.97;;;2.52;83.30
72061;BME280;59925;52.136;5.420;2023-01-29T00:16:25;103195.69;;;2.50;82.89
72061;BME280;59925;52.136;5.420;2023-01-29T00:18:51;103192.19;;;2.50;82.88
72061;BME280;59925;52.136;5.420;2023-01-29T00:21:20;103184.22;;;2.50;83.41
72061;BME280;59925;52.136;5.420;2023-01-29T00:23:50;103178.13;;;2.49;83.35
72061;BME280;59925;52.136;5.420;2023-01-29T00:26:16;103174.63;;;2.49;83.34
72061;BME280;59925;52.136;5.420;2023-01-29T00:28:43;103165.69;;;2.50;83.74
72061;BME280;59925;52.136;5.420;2023-01-29T00:31:11;103167.38;;;2.51;83.73
72061;BME280;59925;52.136;5.420;2023-01-29T00:33:38;103172.66;;;2.51;83.42
72061;BME280;59925;52.136;5.420;2023-01-29T00:36:07;103172.81;;;2.49;83.18
72061;BME280;59925;52.136;5.420;2023-01-29T00:38:35;103174.78;;;2.47;83.41
72061;BME280;59925;52.136;5.420;2023-01-29T00:41:06;103180.59;;;2.51;83.12
72061;BME280;59925;52.136;5.420;2023-01-29T00:43:52;103181.59;;;2.50;83.62
72061;BME280;59925;52.136;5.420;2023-01-29T00:46:37;103179.78;;;2.50;83.47
72061;BME280;59925;52.136;5.420;2023-01-29T00:49:05;103176.59;;;2.47;83.39
72061;BME280;59925;52.136;5.420;2023-01-29T00:51:31;103177.44;;;2.47;83.41
72061;BME280;59925;52.136;5.420;2023-01-29T00:53:58;103174.94;;;2.45;84.03
72061;BME280;59925;52.136;5.420;2023-01-29T00:56:29;103166.84;;;2.47;83.66
72061;BME280;59925;52.136;5.420;2023-01-29T00:58:55;103163.34;;;2.47;83.28
72061;BME280;59925;52.136;5.420;2023-01-29T01:01:22;103161.69;;;2.45;83.26
72061;BME280;59925;52.136;5.420;2023-01-29T01:04:09;103159.91;;;2.46;83.66
72061;BME280;59925;52.136;5.420;2023-01-29T01:06:37;103164.88;;;2.49;83.71
72061;BME280;59925;52.136;5.420;2023-01-29T01:09:04;103165.56;;;2.51;83.61
72061;BME280;59925;52.136;5.420;2023-01-29T01:11:49;103170.00;;;2.51;83.52
72061;BME280;59925;52.136;5.420;2023-01-29T01:14:18;103161.25;;;2.50;83.84
72061;BME280;59925;52.136;5.420;2023-01-29T01:16:46;103162.25;;;2.49;83.71
72061;BME280;59925;52.136;5.420;2023-01-29T01:19:13;103158.75;;;2.49;83.78
72061;BME280;59925;52.136;5.420;2023-01-29T01:21:40;103152.63;;;2.48;83.47
72061;BME280;59925;52.136;5.420;2023-01-29T01:24:11;103146.66;;;2.46;83.96
72061;BME280;59925;52.136;5.420;2023-01-29T01:26:38;103153.63;;;2.47;83.81
72061;BME280;59925;52.136;5.420;2023-01-29T01:29:05;103157.75;;;2.50;84.31
72061;BME280;59925;52.136;5.420;2023-01-29T01:31:32;103160.25;;;2.51;84.28
72061;BME280;59925;52.136;5.420;2023-01-29T01:33:58;103163.06;;;2.50;84.22
72061;BME280;59925;52.136;5.420;2023-01-29T01:36:25;103163.72;;;2.52;83.73
72061;BME280;59925;52.136;5.420;2023-01-29T01:38:51;103164.53;;;2.52;84.20
72061;BME280;59925;52.136;5.420;2023-01-29T01:41:19;103164.53;;;2.52;83.39
72061;BME280;59925;52.136;5.420;2023-01-29T01:43:57;103163.56;;;2.53;83.82
72061;BME280;59925;52.136;5.420;2023-01-29T01:46:26;103162.56;;;2.54;83.70
72061;BME280;59925;52.136;5.420;2023-01-29T01:48:58;103165.22;;;2.54;83.65
72061;BME280;59925;52.136;5.420;2023-01-29T01:51:27;103165.56;;;2.51;83.90
72061;BME280;59925;52.136;5.420;2023-01-29T01:53:58;103158.75;;;2.49;83.91
72061;BME280;59925;52.136;5.420;2023-01-29T01:56:30;103168.22;;;2.51;83.81
72061;BME280;59925;52.136;5.420;2023-01-29T01:59:06;103166.53;;;2.50;83.74
72061;BME280;59925;52.136;5.420;2023-01-29T02:01:35;103169.69;;;2.54;84.18
72061;BME280;59925;52.136;5.420;2023-01-29T02:04:05;103159.09;;;2.54;83.44
72061;BME280;59925;52.136;5.420;2023-01-29T02:06:52;103149.50;;;2.53;83.86
72061;BME280;59925;52.136;5.420;2023-01-29T02:09:41;103157.63;;;2.51;84.18
72061;BME280;59925;52.136;5.420;2023-01-29T02:12:13;103172.66;;;2.51;84.00
72061;BME280;59925;52.136;5.420;2023-01-29T02:14:41;103172.66;;;2.51;83.79
72061;BME280;59925;52.136;5.420;2023-01-29T02:17:11;103171.16;;;2.48;83.76
72061;BME280;59925;52.136;5.420;2023-01-29T02:30:45;103171.97;;;2.49;83.98
72061;BME280;59925;52.136;5.420;2023-01-29T02:33:21;103167.66;;;2.48;83.88
72061;BME280;59925;52.136;5.420;2023-01-29T02:35:58;103165.03;;;2.48;83.90
72061;BME280;59925;52.136;5.420;2023-01-29T02:38:43;103176.59;;;2.47;84.26
72061;BME280;59925;52.136;5.420;2023-01-29T02:41:24;103183.56;;;2.48;84.16
72061;BME280;59925;52.136;5.420;2023-01-29T02:46:34;103184.41;;;2.48;84.70
72061;BME280;59925;52.136;5.420;2023-01-29T02:54:44;103187.06;;;2.48;84.55
72061;BME280;59925;52.136;5.420;2023-01-29T02:57:19;103179.09;;;2.48;84.02
72061;BME280;59925;52.136;5.420;2023-01-29T02:59:56;103179.09;;;2.48;83.95
72061;BME280;59925;52.136;5.420;2023-01-29T03:02:29;103182.75;;;2.47;84.27
72061;BME280;59925;52.136;5.420;2023-01-29T03:05:02;103174.78;;;2.47;83.62
72061;BME280;59925;52.136;5.420;2023-01-29T03:07:35;103171.63;;;2.43;83.90
72061;BME280;59925;52.136;5.420;2023-01-29T03:12:46;103169.13;;;2.42;84.33
72061;BME280;59925;52.136;5.420;2023-01-29T03:15:17;103166.47;;;2.42;84.08
72061;BME280;59925;52.136;5.420;2023-01-29T03:17:54;103156.88;;;2.41;83.96
72061;BME280;59925;52.136;5.420;2023-01-29T03:20:27;103153.25;;;2.42;84.07
72061;BME280;59925;52.136;5.420;2023-01-29T03:23:03;103151.44;;;2.42;84.26
72061;BME280;59925;52.136;5.420;2023-01-29T03:25:33;103150.78;;;2.40;84.77
72061;BME280;59925;52.136;5.420;2023-01-29T03:28:20;103143.31;;;2.36;84.41
72061;BME280;59925;52.136;5.420;2023-01-29T03:31:09;103143.31;;;2.36;84.37
72061;BME280;59925;52.136;5.420;2023-01-29T03:34:00;103133.69;;;2.35;84.14
72061;BME280;59925;52.136;5.420;2023-01-29T03:36:38;103135.19;;;2.37;84.69
72061;BME280;59925;52.136;5.420;2023-01-29T03:39:11;103124.78;;;2.36;84.37
72061;BME280;59925;52.136;5.420;2023-01-29T03:41:47;103124.91;;;2.34;84.44
72061;BME280;59925;52.136;5.420;2023-01-29T03:44:29;103117.94;;;2.33;84.87
72061;BME280;59925;52.136;5.420;2023-01-29T03:47:15;103116.16;;;2.34;85.11
72061;BME280;59925;52.136;5.420;2023-01-29T03:52:26;103119.78;;;2.33;84.90
72061;BME280;59925;52.136;5.420;2023-01-29T03:58:19;103114.66;;;2.31;85.08
72061;BME280;59925;52.136;5.420;2023-01-29T04:00:53;103114.31;;;2.34;84.93
72061;BME280;59925;52.136;5.420;2023-01-29T04:03:28;103105.69;;;2.32;84.72
72061;BME280;59925;52.136;5.420;2023-01-29T04:08:33;103109.38;;;2.31;85.32
72061;BME280;59925;52.136;5.420;2023-01-29T04:11:06;103094.13;;;2.33;85.65
72061;BME280;59925;52.136;5.420;2023-01-29T04:13:35;103097.75;;;2.32;85.28
72061;BME280;59925;52.136;5.420;2023-01-29T04:16:05;103088.19;;;2.31;85.20
72061;BME280;59925;52.136;5.420;2023-01-29T04:18:33;103090.00;;;2.30;84.96
72061;BME280;59925;52.136;5.420;2023-01-29T04:21:00;103096.25;;;2.29;85.27
72061;BME280;59925;52.136;5.420;2023-01-29T04:23:26;103096.44;;;2.28;85.60
72061;BME280;59925;52.136;5.420;2023-01-29T04:31:46;103084.69;;;2.30;84.79
72061;BME280;59925;52.136;5.420;2023-01-29T04:37:16;103089.63;;;2.25;85.19
72061;BME280;59925;52.136;5.420;2023-01-29T04:39:56;103075.41;;;2.26;85.33
72061;BME280;59925;52.136;5.420;2023-01-29T04:42:54;103072.94;;;2.25;84.86
72061;BME280;59925;52.136;5.420;2023-01-29T04:48:19;103072.56;;;2.20;84.60
72061;BME280;59925;52.136;5.420;2023-01-29T04:50:56;103077.03;;;2.19;84.81
72061;BME280;59925;52.136;5.420;2023-01-29T04:53:47;103073.72;;;2.17;84.97
72061;BME280;59925;52.136;5.420;2023-01-29T04:56:41;103069.41;;;2.16;84.54
72061;BME280;59925;52.136;5.420;2023-01-29T04:59:16;103068.59;;;2.16;84.71
72061;BME280;59925;52.136;5.420;2023-01-29T05:01:44;103061.47;;;2.16;84.75
72061;BME280;59925;52.136;5.420;2023-01-29T05:04:13;103057.16;;;2.15;84.81
72061;BME280;59925;52.136;5.420;2023-01-29T05:06:42;103059.81;;;2.15;84.10
72061;BME280;59925;52.136;5.420;2023-01-29T05:09:13;103056.47;;;2.13;84.85
72061;BME280;59925;52.136;5.420;2023-01-29T05:11:41;103056.47;;;2.13;84.59
72061;BME280;59925;52.136;5.420;2023-01-29T05:14:10;103053.31;;;2.09;84.62
72061;BME280;59925;52.136;5.420;2023-01-29T05:16:46;103055.84;;;2.11;84.77
72061;BME280;59925;52.136;5.420;2023-01-29T05:19:15;103051.53;;;2.10;84.84
72061;BME280;59925;52.136;5.420;2023-01-29T05:21:45;103056.13;;;2.08;84.43
72061;BME280;59925;52.136;5.420;2023-01-29T05:24:18;103056.81;;;2.10;84.40
72061;BME280;59925;52.136;5.420;2023-01-29T05:26:47;103062.09;;;2.10;84.23
72061;BME280;59925;52.136;5.420;2023-01-29T05:29:32;103064.91;;;2.08;83.99
72061;BME280;59925;52.136;5.420;2023-01-29T05:31:59;103077.13;;;2.09;84.05
72061;BME280;59925;52.136;5.420;2023-01-29T05:34:26;103074.34;;;2.11;84.29
72061;BME280;59925;52.136;5.420;2023-01-29T05:36:53;103066.72;;;2.08;84.04
72061;BME280;59925;52.136;5.420;2023-01-29T05:39:19;103069.38;;;2.08;84.48
72061;BME280;59925;52.136;5.420;2023-01-29T05:41:46;103067.53;;;2.08;84.45
72061;BME280;59925;52.136;5.420;2023-01-29T05:44:12;103059.78;;;2.07;84.19
72061;BME280;59925;52.136;5.420;2023-01-29T05:46:39;103066.22;;;2.04;84.09
72061;BME280;59925;52.136;5.420;2023-01-29T05:49:05;103069.69;;;2.05;84.07
72061;BME280;59925;52.136;5.420;2023-01-29T05:51:32;103075.28;;;2.02;83.87
72061;BME280;59925;52.136;5.420;2023-01-29T05:53:58;103068.19;;;2.02;84.38
72061;BME280;59925;52.136;5.420;2023-01-29T05:56:24;103062.03;;;2.02;83.86
72061;BME280;59925;52.136;5.420;2023-01-29T05:58:51;103055.94;;;2.01;84.17
72061;BME280;59925;52.136;5.420;2023-01-29T06:01:21;103042.03;;;1.99;84.10
72061;BME280;59925;52.136;5.420;2023-01-29T06:03:47;103046.16;;;2.02;84.30
72061;BME280;59925;52.136;5.420;2023-01-29T06:06:14;103041.88;;;2.01;83.83
72061;BME280;59925;52.136;5.420;2023-01-29T06:08:41;103035.94;;;1.98;83.69
72061;BME280;59925;52.136;5.420;2023-01-29T06:11:10;103037.06;;;1.96;84.03
72061;BME280;59925;52.136;5.420;2023-01-29T06:13:37;103031.94;;;1.94;83.85
72061;BME280;59925;52.136;5.420;2023-01-29T06:16:05;103021.19;;;1.96;83.63
72061;BME280;59925;52.136;5.420;2023-01-29T06:18:32;103025.66;;;1.95;84.03
72061;BME280;59925;52.136;5.420;2023-01-29T06:21:00;103029.97;;;1.96;83.78
72061;BME280;59925;52.136;5.420;2023-01-29T06:23:28;103030.09;;;1.95;83.67
72061;BME280;59925;52.136;5.420;2023-01-29T06:26:03;103026.63;;;1.94;83.77
72061;BME280;59925;52.136;5.420;2023-01-29T06:28:30;103029.41;;;1.93;83.69
72061;BME280;59925;52.136;5.420;2023-01-29T06:31:01;103017.03;;;1.93;83.64
72061;BME280;59925;52.136;5.420;2023-01-29T06:33:47;103011.56;;;1.95;83.57
72061;BME280;59925;52.136;5.420;2023-01-29T06:36:14;103019.50;;;1.95;83.30
72061;BME280;59925;52.136;5.420;2023-01-29T06:38:40;103013.41;;;1.94;83.44
72061;BME280;59925;52.136;5.420;2023-01-29T06:41:11;103016.72;;;1.96;83.05
72061;BME280;59925;52.136;5.420;2023-01-29T06:43:38;103013.91;;;1.98;83.09
72061;BME280;59925;52.136;5.420;2023-01-29T06:46:06;103015.75;;;1.97;82.99
72061;BME280;59925;52.136;5.420;2023-01-29T06:48:33;103019.03;;;1.99;82.69
72061;BME280;59925;52.136;5.420;2023-01-29T06:51:04;103029.31;;;2.03;82.78
72061;BME280;59925;52.136;5.420;2023-01-29T06:53:32;103018.72;;;2.03;82.90
72061;BME280;59925;52.136;5.420;2023-01-29T06:55:58;103009.13;;;2.02;82.73
72061;BME280;59925;52.136;5.420;2023-01-29T06:58:25;103004.69;;;2.02;82.97
72061;BME280;59925;52.136;5.420;2023-01-29T07:00:51;103022.22;;;2.03;82.58
72061;BME280;59925;52.136;5.420;2023-01-29T07:03:18;103019.56;;;2.03;82.81
72061;BME280;59925;52.136;5.420;2023-01-29T07:05:51;103012.44;;;2.04;82.77
72061;BME280;59925;52.136;5.420;2023-01-29T07:08:18;103006.34;;;2.03;82.77
72061;BME280;59925;52.136;5.420;2023-01-29T07:10:48;103018.72;;;2.03;82.38
72061;BME280;59925;52.136;5.420;2023-01-29T07:13:15;103018.59;;;2.04;82.72
72061;BME280;59925;52.136;5.420;2023-01-29T07:15:41;103012.44;;;2.04;82.68
72061;BME280;59925;52.136;5.420;2023-01-29T07:18:10;103009.00;;;2.03;82.60
72061;BME280;59925;52.136;5.420;2023-01-29T07:20:40;103004.50;;;2.04;82.52
72061;BME280;59925;52.136;5.420;2023-01-29T07:23:11;103016.09;;;2.03;82.28
72061;BME280;59925;52.136;5.420;2023-01-29T07:25:38;103019.72;;;2.02;82.66
72061;BME280;59925;52.136;5.420;2023-01-29T07:28:05;103022.34;;;2.02;82.49
72061;BME280;59925;52.136;5.420;2023-01-29T07:30:32;103013.59;;;2.01;82.50
72061;BME280;59925;52.136;5.420;2023-01-29T07:33:07;103015.25;;;2.02;82.63
72061;BME280;59925;52.136;5.420;2023-01-29T07:35:38;103015.09;;;2.04;82.63
72061;BME280;59925;52.136;5.420;2023-01-29T07:38:06;103017.56;;;2.05;82.42
72061;BME280;59925;52.136;5.420;2023-01-29T07:40:33;103007.00;;;2.05;82.31
72061;BME280;59925;52.136;5.420;2023-01-29T07:43:00;103014.28;;;2.03;82.76
72061;BME280;59925;52.136;5.420;2023-01-29T07:45:28;102999.22;;;2.04;82.78
72061;BME280;59925;52.136;5.420;2023-01-29T07:47:55;103001.88;;;2.04;82.45
72061;BME280;59925;52.136;5.420;2023-01-29T07:50:23;102993.75;;;2.05;82.48
72061;BME280;59925;52.136;5.420;2023-01-29T07:52:50;102994.44;;;2.07;82.42
72061;BME280;59925;52.136;5.420;2023-01-29T07:55:17;102990.13;;;2.06;82.31
72061;BME280;59925;52.136;5.420;2023-01-29T07:57:43;102982.88;;;2.08;82.41
72061;BME280;59925;52.136;5.420;2023-01-29T08:00:11;102979.91;;;2.11;82.38
72061;BME280;59925;52.136;5.420;2023-01-29T08:02:38;102973.94;;;2.09;82.18
72061;BME280;59925;52.136;5.420;2023-01-29T08:05:05;102972.28;;;2.08;82.72
72061;BME280;59925;52.136;5.420;2023-01-29T08:07:31;102977.25;;;2.11;82.30
72061;BME280;59925;52.136;5.420;2023-01-29T08:09:58;102969.00;;;2.14;82.08
72061;BME280;59925;52.136;5.420;2023-01-29T08:12:24;102973.31;;;2.16;82.53
72061;BME280;59925;52.136;5.420;2023-01-29T08:14:51;102970.31;;;2.19;82.25
72061;BME280;59925;52.136;5.420;2023-01-29T08:17:17;102973.66;;;2.21;82.22
72061;BME280;59925;52.136;5.420;2023-01-29T08:19:43;102965.72;;;2.21;81.48
72061;BME280;59925;52.136;5.420;2023-01-29T08:22:10;102960.28;;;2.22;81.79
72061;BME280;59925;52.136;5.420;2023-01-29T08:24:36;102972.34;;;2.25;81.44
72061;BME280;59925;52.136;5.420;2023-01-29T08:27:23;102970.38;;;2.27;81.58
72061;BME280;59925;52.136;5.420;2023-01-29T08:29:49;102970.06;;;2.30;81.40
72061;BME280;59925;52.136;5.420;2023-01-29T08:32:15;102968.06;;;2.32;81.22
72061;BME280;59925;52.136;5.420;2023-01-29T08:34:42;102961.13;;;2.31;81.07
72061;BME280;59925;52.136;5.420;2023-01-29T08:37:08;102961.13;;;2.31;81.11
72061;BME280;59925;52.136;5.420;2023-01-29T08:39:34;102953.00;;;2.33;81.39
72061;BME280;59925;52.136;5.420;2023-01-29T08:42:01;102951.03;;;2.35;81.67
72061;BME280;59925;52.136;5.420;2023-01-29T08:44:28;102941.13;;;2.37;80.88
72061;BME280;59925;52.136;5.420;2023-01-29T08:46:54;102940.94;;;2.38;80.94
72061;BME280;59925;52.136;5.420;2023-01-29T08:49:20;102949.38;;;2.42;80.74
72061;BME280;59925;52.136;5.420;2023-01-29T08:51:47;102938.66;;;2.43;80.49
72061;BME280;59925;52.136;5.420;2023-01-29T08:54:13;102951.88;;;2.43;80.72
72061;BME280;59925;52.136;5.420;2023-01-29T08:56:40;102940.31;;;2.44;80.87
72061;BME280;59925;52.136;5.420;2023-01-29T08:59:06;102942.78;;;2.46;80.62
72061;BME280;59925;52.136;5.420;2023-01-29T09:01:33;102932.88;;;2.48;81.00
72061;BME280;59925;52.136;5.420;2023-01-29T09:03:59;102938.81;;;2.50;80.98
72061;BME280;59925;52.136;5.420;2023-01-29T09:06:25;102938.81;;;2.50;80.23
72061;BME280;59925;52.136;5.420;2023-01-29T09:08:52;102940.50;;;2.51;80.57
72061;BME280;59925;52.136;5.420;2023-01-29T09:11:18;102934.03;;;2.54;80.58
72061;BME280;59925;52.136;5.420;2023-01-29T09:13:45;102935.50;;;2.56;80.50
72061;BME280;59925;52.136;5.420;2023-01-29T09:16:11;102939.81;;;2.57;79.97
72061;BME280;59925;52.136;5.420;2023-01-29T09:18:37;102932.88;;;2.56;80.51
72061;BME280;59925;52.136;5.420;2023-01-29T09:21:04;102935.19;;;2.59;80.01
72061;BME280;59925;52.136;5.420;2023-01-29T09:23:31;102933.03;;;2.63;80.39
72061;BME280;59925;52.136;5.420;2023-01-29T09:25:58;102933.53;;;2.67;80.30
72061;BME280;59925;52.136;5.420;2023-01-29T09:28:24;102942.13;;;2.69;79.81
72061;BME280;59925;52.136;5.420;2023-01-29T09:30:51;102943.63;;;2.71;80.35
72061;BME280;59925;52.136;5.420;2023-01-29T09:33:17;102931.88;;;2.74;79.79
72061;BME280;59925;52.136;5.420;2023-01-29T09:35:44;102942.16;;;2.77;80.29
72061;BME280;59925;52.136;5.420;2023-01-29T09:38:12;102941.81;;;2.80;79.80
72061;BME280;59925;52.136;5.420;2023-01-29T09:43:44;102932.22;;;2.79;79.37
72061;BME280;59925;52.136;5.420;2023-01-29T09:46:41;102940.31;;;2.86;79.71
72061;BME280;59925;52.136;5.420;2023-01-29T09:49:39;102934.03;;;2.87;79.87
72061;BME280;59925;52.136;5.420;2023-01-29T09:52:17;102929.25;;;2.90;79.39
72061;BME280;59925;52.136;5.420;2023-01-29T10:00:04;102928.25;;;3.00;79.25
72061;BME280;59925;52.136;5.420;2023-01-29T10:02:56;102930.72;;;3.01;79.11
72061;BME280;59925;52.136;5.420;2023-01-29T10:08:22;102929.41;;;3.05;79.17
72061;BME280;59925;52.136;5.420;2023-01-29T10:22:35;102913.00;;;3.10;78.88
72061;BME280;59925;52.136;5.420;2023-01-29T10:25:18;102916.63;;;3.09;78.99
72061;BME280;59925;52.136;5.420;2023-01-29T10:27:49;102913.16;;;3.09;79.24
72061;BME280;59925;52.136;5.420;2023-01-29T10:32:47;102898.09;;;3.09;79.18
72061;BME280;59925;52.136;5.420;2023-01-29T10:35:23;102900.91;;;3.08;78.87
72061;BME280;59925;52.136;5.420;2023-01-29T10:37:55;102888.47;;;3.08;78.70
72061;BME280;59925;52.136;5.420;2023-01-29T10:40:40;102879.53;;;3.09;78.77
72061;BME280;59925;52.136;5.420;2023-01-29T10:45:51;102881.84;;;3.12;78.52
72061;BME280;59925;52.136;5.420;2023-01-29T11:00:27;102857.59;;;3.32;78.92
72061;BME280;59925;52.136;5.420;2023-01-29T11:02:55;102850.66;;;3.31;78.18
72061;BME280;59925;52.136;5.420;2023-01-29T11:05:32;102843.34;;;3.33;78.88
72061;BME280;59925;52.136;5.420;2023-01-29T11:08:04;102850.97;;;3.36;79.10
72061;BME280;59925;52.136;5.420;2023-01-29T11:10:36;102842.66;;;3.39;78.49
72061;BME280;59925;52.136;5.420;2023-01-29T11:13:11;102840.69;;;3.41;78.45
72061;BME280;59925;52.136;5.420;2023-01-29T11:15:39;102838.19;;;3.40;78.61
72061;BME280;59925;52.136;5.420;2023-01-29T11:18:13;102827.41;;;3.41;78.77
72061;BME280;59925;52.136;5.420;2023-01-29T11:20:43;102836.19;;;3.42;78.42
72061;BME280;59925;52.136;5.420;2023-01-29T11:23:24;102831.72;;;3.42;78.31
72061;BME280;59925;52.136;5.420;2023-01-29T11:25:53;102830.53;;;3.45;78.76
72061;BME280;59925;52.136;5.420;2023-01-29T11:28:40;102834.66;;;3.47;78.77
72061;BME280;59925;52.136;5.420;2023-01-29T11:31:28;102821.75;;;3.44;78.69
72061;BME280;59925;52.136;5.420;2023-01-29T11:34:12;102825.56;;;3.50;79.37
72061;BME280;59925;52.136;5.420;2023-01-29T11:36:41;102813.63;;;3.46;78.45
72061;BME280;59925;52.136;5.420;2023-01-29T11:39:18;102816.09;;;3.47;78.60
72061;BME280;59925;52.136;5.420;2023-01-29T11:44:40;102805.69;;;3.46;78.09
72061;BME280;59925;52.136;5.420;2023-01-29T11:47:25;102803.69;;;3.48;79.05
72061;BME280;59925;52.136;5.420;2023-01-29T11:49:57;102797.53;;;3.47;78.68
72061;BME280;59925;52.136;5.420;2023-01-29T11:52:33;102801.19;;;3.46;78.95
72061;BME280;59925;52.136;5.420;2023-01-29T11:55:12;102804.50;;;3.48;78.96
72061;BME280;59925;52.136;5.420;2023-01-29T11:57:42;102801.84;;;3.48;79.01
72061;BME280;59925;52.136;5.420;2023-01-29T12:00:23;102797.22;;;3.50;79.26
72061;BME280;59925;52.136;5.420;2023-01-29T12:02:56;102784.13;;;3.49;79.62
72061;BME280;59925;52.136;5.420;2023-01-29T12:05:26;102774.69;;;3.46;79.05
72061;BME280;59925;52.136;5.420;2023-01-29T12:07:58;102787.94;;;3.46;79.63
72061;BME280;59925;52.136;5.420;2023-01-29T12:10:35;102783.81;;;3.44;79.65
72061;BME280;59925;52.136;5.420;2023-01-29T12:15:46;102760.75;;;3.44;79.98
72061;BME280;59925;52.136;5.420;2023-01-29T12:18:27;102753.84;;;3.43;79.96
72061;BME280;59925;52.136;5.420;2023-01-29T12:21:01;102753.84;;;3.43;80.29
72061;BME280;59925;52.136;5.420;2023-01-29T12:23:52;102746.50;;;3.45;80.24
72061;BME280;59925;52.136;5.420;2023-01-29T12:26:31;102739.19;;;3.47;80.52
72061;BME280;59925;52.136;5.420;2023-01-29T12:30:06;102740.69;;;3.50;80.30
72061;BME280;59925;52.136;5.420;2023-01-29T12:35:08;102722.75;;;3.52;80.64
72061;BME280;59925;52.136;5.420;2023-01-29T12:38:01;102720.66;;;3.47;80.39
72061;BME280;59925;52.136;5.420;2023-01-29T12:40:32;102717.66;;;3.50;80.85
72061;BME280;59925;52.136;5.420;2023-01-29T12:43:03;102718.13;;;3.54;80.65
72061;BME280;59925;52.136;5.420;2023-01-29T12:45:33;102706.34;;;3.57;80.68
72061;BME280;59925;52.136;5.420;2023-01-29T12:48:07;102700.84;;;3.58;80.40
72061;BME280;59925;52.136;5.420;2023-01-29T12:50:35;102702.19;;;3.54;80.20
72061;BME280;59925;52.136;5.420;2023-01-29T12:56:00;102683.09;;;3.59;80.41
72061;BME280;59925;52.136;5.420;2023-01-29T12:58:32;102679.63;;;3.58;80.94
72061;BME280;59925;52.136;5.420;2023-01-29T13:01:05;102663.25;;;3.55;80.57
72061;BME280;59925;52.136;5.420;2023-01-29T13:03:58;102650.66;;;3.57;80.37
72061;BME280;59925;52.136;5.420;2023-01-29T13:06:30;102643.69;;;3.56;81.00
72061;BME280;59925;52.136;5.420;2023-01-29T13:09:07;102641.03;;;3.56;80.83
72061;BME280;59925;52.136;5.420;2023-01-29T13:11:57;102631.44;;;3.55;80.87
72061;BME280;59925;52.136;5.420;2023-01-29T13:14:39;102630.44;;;3.56;81.15
72061;BME280;59925;52.136;5.420;2023-01-29T13:17:16;102608.38;;;3.55;80.89
72061;BME280;59925;52.136;5.420;2023-01-29T13:19:46;102603.06;;;3.55;80.84
72061;BME280;59925;52.136;5.420;2023-01-29T13:22:20;102594.78;;;3.58;80.92
72061;BME280;59925;52.136;5.420;2023-01-29T13:24:48;102591.38;;;3.64;81.31
72061;BME280;59925;52.136;5.420;2023-01-29T13:27:32;102576.78;;;3.68;81.27
72061;BME280;59925;52.136;5.420;2023-01-29T13:29:59;102572.22;;;3.77;81.32
72061;BME280;59925;52.136;5.420;2023-01-29T13:32:28;102578.97;;;3.80;80.90
72061;BME280;59925;52.136;5.420;2023-01-29T13:35:11;102576.81;;;3.83;81.17
72061;BME280;59925;52.136;5.420;2023-01-29T13:37:48;102574.16;;;3.83;80.72
72061;BME280;59925;52.136;5.420;2023-01-29T13:40:21;102564.16;;;3.86;80.59
72061;BME280;59925;52.136;5.420;2023-01-29T13:42:50;102567.47;;;3.88;80.95
72061;BME280;59925;52.136;5.420;2023-01-29T13:47:47;102567.75;;;3.93;81.04
72061;BME280;59925;52.136;5.420;2023-01-29T13:50:40;102567.41;;;3.96;80.30
72061;BME280;59925;52.136;5.420;2023-01-29T13:53:19;102564.56;;;3.97;80.86
72061;BME280;59925;52.136;5.420;2023-01-29T13:55:46;102557.78;;;3.95;80.49
72061;BME280;59925;52.136;5.420;2023-01-29T14:01:08;102558.03;;;4.00;80.35
72061;BME280;59925;52.136;5.420;2023-01-29T14:03:50;102556.88;;;4.03;80.36
72061;BME280;59925;52.136;5.420;2023-01-29T14:06:37;102562.19;;;4.03;80.67
72061;BME280;59925;52.136;5.420;2023-01-29T14:09:29;102559.34;;;4.04;80.46
72061;BME280;59925;52.136;5.420;2023-01-29T14:11:56;102559.34;;;4.04;80.60
72061;BME280;59925;52.136;5.420;2023-01-29T14:17:15;102546.34;;;4.09;80.70
72061;BME280;59925;52.136;5.420;2023-01-29T14:19:56;102538.00;;;4.12;80.88
72061;BME280;59925;52.136;5.420;2023-01-29T14:22:29;102539.66;;;4.13;80.98
72061;BME280;59925;52.136;5.420;2023-01-29T14:25:01;102528.22;;;4.13;80.21
72061;BME280;59925;52.136;5.420;2023-01-29T14:27:28;102543.31;;;4.12;80.74
72061;BME280;59925;52.136;5.420;2023-01-29T14:30:16;102541.13;;;4.16;80.74
72061;BME280;59925;52.136;5.420;2023-01-29T14:32:48;102537.28;;;4.19;81.12
72061;BME280;59925;52.136;5.420;2023-01-29T14:35:20;102525.44;;;4.21;81.16
72061;BME280;59925;52.136;5.420;2023-01-29T14:37:53;102523.63;;;4.22;80.68
72061;BME280;59925;52.136;5.420;2023-01-29T14:40:24;102516.69;;;4.21;80.93
72061;BME280;59925;52.136;5.420;2023-01-29T14:56:03;102517.03;;;4.18;81.23
72061;BME280;59925;52.136;5.420;2023-01-29T14:58:51;102506.78;;;4.14;80.98
72061;BME280;59925;52.136;5.420;2023-01-29T15:01:38;102504.97;;;4.15;81.20
72061;BME280;59925;52.136;5.420;2023-01-29T15:04:13;102497.38;;;4.12;81.02
72061;BME280;59925;52.136;5.420;2023-01-29T15:06:49;102490.06;;;4.14;81.02
72061;BME280;59925;52.136;5.420;2023-01-29T15:09:39;102489.03;;;4.15;81.12
72061;BME280;59925;52.136;5.420;2023-01-29T15:12:23;102476.59;;;4.16;80.92
72061;BME280;59925;52.136;5.420;2023-01-29T15:15:02;102477.41;;;4.16;81.38
72061;BME280;59925;52.136;5.420;2023-01-29T15:18:13;102475.78;;;4.15;81.47
72061;BME280;59925;52.136;5.420;2023-01-29T15:20:42;102468.97;;;4.12;81.23
72061;BME280;59925;52.136;5.420;2023-01-29T15:23:29;102480.25;;;4.14;81.06